createdAt,value
2019-05-29T00:00:53.454Z,14.73
2019-05-29T00:03:28.300Z,14.72
2019-05-29T00:06:02.942Z,14.70
2019-05-29T00:08:36.274Z,14.75
2019-05-29T00:11:10.709Z,14.76
2019-05-29T00:13:45.297Z,14.76
2019-05-29T00:16:45.739Z,14.70
2019-05-29T00:19:20.321Z,14.59
2019-05-29T00:21:55.273Z,14.70
2019-05-29T00:24:29.919Z,14.73
2019-05-29T00:27:05.410Z,14.73
2019-05-29T00:29:40.128Z,14.75
2019-05-29T00:32:15.142Z,14.74
2019-05-29T00:34:50.058Z,14.74
2019-05-29T00:37:26.275Z,14.69
2019-05-29T00:40:01.268Z,14.69
2019-05-29T00:42:36.309Z,14.61
2019-05-29T00:45:11.510Z,14.63
2019-05-29T00:47:46.280Z,14.65
2019-05-29T00:50:21.601Z,14.56
2019-05-29T00:52:56.595Z,14.57
2019-05-29T00:55:31.272Z,14.55
2019-05-29T00:58:07.126Z,14.58
2019-05-29T01:00:42.113Z,14.64
2019-05-29T01:03:17.896Z,14.62
2019-05-29T01:05:52.715Z,14.59
2019-05-29T01:08:26.102Z,14.59
2019-05-29T01:11:00.550Z,14.58
2019-05-29T01:13:36.296Z,14.63
2019-05-29T01:16:11.356Z,14.62
2019-05-29T01:18:45.948Z,14.64
2019-05-29T01:21:20.755Z,14.71
2019-05-29T01:23:56.278Z,14.78
2019-05-29T01:26:30.936Z,14.76
2019-05-29T01:29:05.644Z,14.74
2019-05-29T01:31:40.275Z,14.70
2019-05-29T01:34:15.678Z,14.69
2019-05-29T01:36:50.801Z,14.69
2019-05-29T01:39:25.270Z,14.70
2019-05-29T01:41:59.943Z,14.67
2019-05-29T01:44:35.926Z,14.67
2019-05-29T01:47:10.660Z,14.63
2019-05-29T01:49:45.247Z,14.64
2019-05-29T01:52:20.246Z,14.67
2019-05-29T01:54:54.943Z,14.62
2019-05-29T01:57:29.629Z,14.59
2019-05-29T02:00:04.275Z,14.62
2019-05-29T02:02:40.074Z,14.65
2019-05-29T02:05:15.771Z,14.64
2019-05-29T02:07:49.092Z,14.65
2019-05-29T02:10:24.334Z,14.66
2019-05-29T02:13:00.527Z,14.61
2019-05-29T02:15:37.270Z,14.59
2019-05-29T02:18:11.938Z,14.58
2019-05-29T02:20:45.269Z,14.55
2019-05-29T02:23:22.082Z,14.54
2019-05-29T02:25:56.731Z,14.54
2019-05-29T02:28:31.341Z,14.46
2019-05-29T02:31:06.274Z,14.40
2019-05-29T02:33:41.111Z,14.39
2019-05-29T02:36:15.741Z,14.33
2019-05-29T02:38:50.290Z,14.38
2019-05-29T02:41:26.207Z,14.37
2019-05-29T02:44:01.271Z,14.37
2019-05-29T02:46:36.125Z,14.33
2019-05-29T02:49:10.963Z,14.25
2019-05-29T02:51:44.270Z,14.23
2019-05-29T02:54:20.185Z,14.16
2019-05-29T02:56:54.961Z,14.16
2019-05-29T02:59:30.190Z,14.06
2019-05-29T03:02:06.022Z,14.06
2019-05-29T03:04:40.938Z,14.06
2019-05-29T03:07:15.756Z,14.01
2019-05-29T03:09:50.643Z,13.94
2019-05-29T03:12:26.950Z,13.94
2019-05-29T03:15:02.065Z,13.95
2019-05-29T03:17:36.764Z,13.92
2019-05-29T03:20:11.758Z,13.90
2019-05-29T03:22:46.275Z,13.87
2019-05-29T03:25:20.930Z,13.87
2019-05-29T03:30:41.294Z,13.93
2019-05-29T03:33:08.709Z,13.84
2019-05-29T03:35:48.050Z,13.81
2019-05-29T03:38:20.534Z,13.74
2019-05-29T03:40:57.295Z,13.75
2019-05-29T03:43:35.045Z,13.66
2019-05-29T03:46:26.545Z,13.62
2019-05-29T03:48:45.473Z,13.58
2019-05-29T03:51:20.263Z,13.60
2019-05-29T03:53:54.776Z,13.56
2019-05-29T03:56:30.712Z,13.46
2019-05-29T03:59:06.542Z,13.47
2019-05-29T04:01:47.272Z,13.46
2019-05-29T04:04:21.937Z,13.44
2019-05-29T04:06:55.278Z,13.41
2019-05-29T04:09:31.122Z,13.37
2019-05-29T04:12:07.308Z,13.37
2019-05-29T04:14:42.913Z,13.35
2019-05-29T04:17:16.574Z,13.31
2019-05-29T04:19:51.772Z,13.27
2019-05-29T04:22:32.905Z,13.27
2019-05-29T04:25:08.317Z,13.27
2019-05-29T04:27:44.700Z,13.29
2019-05-29T04:30:19.304Z,13.29
2019-05-29T04:32:53.785Z,13.30
2019-05-29T04:35:28.311Z,13.29
2019-05-29T04:38:03.275Z,13.34
2019-05-29T04:40:39.852Z,13.36
2019-05-29T04:43:14.928Z,13.37
2019-05-29T04:45:49.642Z,13.40
2019-05-29T04:48:24.310Z,13.39
2019-05-29T04:50:58.928Z,13.41
2019-05-29T04:53:35.497Z,13.43
2019-05-29T04:56:13.933Z,13.45
2019-05-29T04:58:48.307Z,13.44
2019-05-29T05:01:23.253Z,13.43
2019-05-29T05:03:57.764Z,13.42
2019-05-29T05:06:33.208Z,13.45
2019-05-29T05:09:09.261Z,13.45
2019-05-29T05:11:43.912Z,13.48
2019-05-29T05:14:18.292Z,13.49
2019-05-29T05:16:53.124Z,13.52
2019-05-29T05:19:27.664Z,13.56
2019-05-29T05:22:06.302Z,13.56
2019-05-29T05:24:43.943Z,13.58
2019-05-29T05:27:17.746Z,13.61
2019-05-29T05:29:52.648Z,13.61
2019-05-29T05:32:27.293Z,13.64
2019-05-29T05:35:02.283Z,13.64
2019-05-29T05:37:37.103Z,13.71
2019-05-29T05:40:11.947Z,13.77
2019-05-29T05:42:46.945Z,13.77
2019-05-29T05:45:23.148Z,13.73
2019-05-29T05:47:58.220Z,13.82
2019-05-29T05:50:33.319Z,13.82
2019-05-29T05:53:08.282Z,13.84
2019-05-29T05:55:42.932Z,13.84
2019-05-29T05:58:17.619Z,13.84
2019-05-29T06:00:53.318Z,13.87
2019-05-29T06:03:27.935Z,13.86
2019-05-29T06:06:02.681Z,13.86
2019-05-29T06:08:38.094Z,13.86
2019-05-29T06:11:12.671Z,13.80
2019-05-29T06:13:47.166Z,13.80
2019-05-29T06:16:21.672Z,13.86
2019-05-29T06:18:56.272Z,13.86
2019-05-29T06:21:30.866Z,13.88
2019-05-29T06:24:04.393Z,13.91
2019-05-29T06:26:39.054Z,13.95
2019-05-29T06:29:13.681Z,14.04
2019-05-29T06:31:48.339Z,14.04
2019-05-29T06:34:23.292Z,13.98
2019-05-29T06:36:59.277Z,14.08
2019-05-29T06:39:35.325Z,14.14
2019-05-29T06:42:10.328Z,14.26
2019-05-29T06:44:48.628Z,14.30
2019-05-29T06:47:21.902Z,14.27
2019-05-29T06:49:56.550Z,14.34
2019-05-29T06:52:31.321Z,14.46
2019-05-29T06:55:07.274Z,14.42
2019-05-29T06:57:42.647Z,14.48
2019-05-29T07:00:34.377Z,14.39
2019-05-29T07:02:53.242Z,14.49
2019-05-29T07:05:27.718Z,14.50
2019-05-29T07:08:16.481Z,14.58
2019-05-29T07:10:38.522Z,14.76
2019-05-29T07:13:13.394Z,14.91
2019-05-29T07:15:48.279Z,15.09
2019-05-29T07:18:23.271Z,15.16
2019-05-29T07:20:57.951Z,15.13
2019-05-29T07:23:32.654Z,15.35
2019-05-29T07:26:07.307Z,15.59
2019-05-29T07:29:03.081Z,15.55
2019-05-29T07:31:19.820Z,15.50
2019-05-29T07:33:55.953Z,15.76
2019-05-29T07:36:30.941Z,16.05
2019-05-29T07:39:05.286Z,16.22
2019-05-29T07:41:39.692Z,16.65
2019-05-29T07:44:13.068Z,16.65
2019-05-29T07:46:48.854Z,17.01
2019-05-29T07:49:38.070Z,17.33
2019-05-29T07:52:01.264Z,17.33
2019-05-29T07:54:37.283Z,17.61
2019-05-29T07:57:11.951Z,17.77
2019-05-29T07:59:46.770Z,17.68
2019-05-29T08:02:21.947Z,17.76
2019-05-29T08:04:56.745Z,17.85
2019-05-29T08:07:31.673Z,17.83
2019-05-29T08:10:08.284Z,17.83
2019-05-29T08:12:49.985Z,17.92
2019-05-29T08:15:18.280Z,17.81
2019-05-29T08:17:52.886Z,17.99
2019-05-29T08:20:27.298Z,17.99
2019-05-29T08:23:02.285Z,18.16
2019-05-29T08:25:37.109Z,18.24
2019-05-29T08:28:11.940Z,18.46
2019-05-29T08:30:50.311Z,18.45
2019-05-29T08:33:21.331Z,18.58
2019-05-29T08:36:00.114Z,18.94
2019-05-29T08:38:33.184Z,18.96
2019-05-29T08:41:07.677Z,18.74
2019-05-29T08:43:42.525Z,18.74
2019-05-29T08:46:17.070Z,18.69
2019-05-29T08:48:52.229Z,18.58
2019-05-29T08:51:26.887Z,18.62
2019-05-29T08:54:01.336Z,18.62
2019-05-29T08:56:35.764Z,18.43
2019-05-29T08:59:08.666Z,18.23
2019-05-29T09:01:44.693Z,18.17
2019-05-29T09:04:17.912Z,18.07
2019-05-29T09:06:53.382Z,17.96
2019-05-29T09:09:28.102Z,17.73
2019-05-29T09:12:02.575Z,17.49
2019-05-29T09:14:36.953Z,17.49
2019-05-29T09:17:11.979Z,17.95
2019-05-29T09:19:46.527Z,18.50
2019-05-29T09:22:21.125Z,18.84
2019-05-29T09:24:55.655Z,18.91
2019-05-29T09:27:30.094Z,18.91
2019-05-29T09:30:04.726Z,18.94
2019-05-29T09:32:50.003Z,19.04
2019-05-29T09:35:17.452Z,18.79
2019-05-29T09:37:52.291Z,18.79
2019-05-29T09:40:27.668Z,18.22
2019-05-29T09:43:03.283Z,18.22
2019-05-29T09:45:37.902Z,17.99
2019-05-29T09:48:12.664Z,17.58
2019-05-29T09:50:50.565Z,17.58
2019-05-29T09:53:23.261Z,17.47
2019-05-29T09:55:59.068Z,17.42
2019-05-29T09:58:34.101Z,17.36
2019-05-29T10:01:21.732Z,17.18
2019-05-29T10:03:45.743Z,17.17
2019-05-29T10:06:18.701Z,17.31
2019-05-29T10:08:54.108Z,17.73
2019-05-29T10:11:28.999Z,18.08
2019-05-29T10:14:27.602Z,18.68
2019-05-29T10:17:09.247Z,18.56
2019-05-29T10:19:39.651Z,18.33
2019-05-29T10:22:14.130Z,18.08
2019-05-29T10:24:48.761Z,17.52
2019-05-29T10:27:23.748Z,17.52
2019-05-29T10:29:58.398Z,17.04
2019-05-29T10:32:32.978Z,17.04
2019-05-29T10:35:07.948Z,16.99
2019-05-29T10:37:42.764Z,16.99
2019-05-29T10:40:17.752Z,17.14
2019-05-29T10:42:51.563Z,17.42
2019-05-29T10:45:26.289Z,17.99
2019-05-29T10:48:00.915Z,18.57
2019-05-29T10:50:35.674Z,19.41
2019-05-29T10:53:10.271Z,21.21
2019-05-29T10:55:46.390Z,20.30
2019-05-29T10:58:20.947Z,20.30
2019-05-29T11:00:55.611Z,19.36
2019-05-29T11:03:30.112Z,19.36
2019-05-29T11:06:04.716Z,19.19
2019-05-29T11:08:38.953Z,19.19
2019-05-29T11:11:13.340Z,19.45
2019-05-29T11:13:48.650Z,19.70
2019-05-29T11:16:21.790Z,20.04
2019-05-29T11:18:55.953Z,21.12
2019-05-29T11:21:30.463Z,22.54
2019-05-29T11:24:04.951Z,23.39
2019-05-29T11:26:39.285Z,24.11
2019-05-29T11:29:13.936Z,23.47
2019-05-29T11:31:48.668Z,22.69
2019-05-29T11:34:23.076Z,22.69
2019-05-29T11:36:58.353Z,21.54
2019-05-29T11:39:32.946Z,21.54
2019-05-29T11:42:07.563Z,22.76
2019-05-29T11:44:42.090Z,23.55
2019-05-29T11:47:16.707Z,23.32
2019-05-29T11:49:50.884Z,23.32
2019-05-29T11:52:41.555Z,22.59
2019-05-29T11:55:07.061Z,21.93
2019-05-29T11:57:39.660Z,20.74
2019-05-29T12:00:20.387Z,20.74
2019-05-29T12:02:51.263Z,20.99
2019-05-29T12:05:26.324Z,22.12
2019-05-29T12:08:01.925Z,21.95
2019-05-29T12:10:36.862Z,22.16
2019-05-29T12:13:11.306Z,22.74
2019-05-29T12:15:45.778Z,22.47
2019-05-29T12:18:24.335Z,22.72
2019-05-29T12:20:56.324Z,24.92
2019-05-29T12:23:31.095Z,26.35
2019-05-29T12:26:21.176Z,27.65
2019-05-29T12:28:42.095Z,28.60
2019-05-29T12:31:16.719Z,29.77
2019-05-29T12:33:51.189Z,29.77
2019-05-29T12:36:25.706Z,27.32
2019-05-29T12:38:59.634Z,26.15
2019-05-29T12:41:33.681Z,25.15
2019-05-29T12:44:06.856Z,26.45
2019-05-29T12:46:39.646Z,25.72
2019-05-29T12:49:13.944Z,25.20
2019-05-29T12:51:48.272Z,24.68
2019-05-29T12:54:22.868Z,23.91
2019-05-29T12:56:57.859Z,24.80
2019-05-29T12:59:32.615Z,23.48
2019-05-29T13:02:07.281Z,23.48
2019-05-29T13:05:06.408Z,22.86
2019-05-29T13:07:17.948Z,22.38
2019-05-29T13:09:52.274Z,22.90
2019-05-29T13:12:26.800Z,26.47
2019-05-29T13:15:00.735Z,27.71
2019-05-29T13:17:36.690Z,26.91
2019-05-29T13:20:21.238Z,27.22
2019-05-29T13:22:48.132Z,27.60
2019-05-29T13:25:22.749Z,27.93
2019-05-29T13:27:59.330Z,29.23
2019-05-29T13:30:33.346Z,29.69
2019-05-29T13:33:09.045Z,28.02
2019-05-29T13:35:45.634Z,26.76
2019-05-29T13:38:20.177Z,25.55
2019-05-29T13:40:56.128Z,24.84
2019-05-29T13:43:30.944Z,24.84
2019-05-29T13:46:05.643Z,26.06
2019-05-29T13:48:40.094Z,26.06
2019-05-29T13:51:14.330Z,28.54
2019-05-29T13:54:02.429Z,29.61
2019-05-29T13:56:24.955Z,29.09
2019-05-29T13:58:59.868Z,26.41
2019-05-29T14:01:34.559Z,25.06
2019-05-29T14:04:10.779Z,24.44
2019-05-29T14:06:43.791Z,24.44
2019-05-29T14:09:17.940Z,25.39
2019-05-29T14:11:52.281Z,25.39
2019-05-29T14:14:26.754Z,27.32
2019-05-29T14:17:00.389Z,27.77
2019-05-29T14:19:34.860Z,27.77
2019-05-29T14:22:09.359Z,25.89
2019-05-29T14:24:43.956Z,24.85
2019-05-29T14:27:18.653Z,24.12
2019-05-29T14:29:51.860Z,26.28
2019-05-29T14:34:24.679Z,27.42
2019-05-29T14:36:59.280Z,27.54
2019-05-29T14:39:33.695Z,27.54
2019-05-29T14:42:08.244Z,26.72
2019-05-29T14:44:42.746Z,25.25
2019-05-29T14:47:17.278Z,24.09
2019-05-29T14:49:51.686Z,23.20
2019-05-29T14:52:24.689Z,23.19
2019-05-29T14:54:58.943Z,23.63
2019-05-29T14:57:32.015Z,23.92
2019-05-29T15:00:18.813Z,23.18
2019-05-29T15:02:44.795Z,22.83
2019-05-29T15:05:21.304Z,22.31
2019-05-29T15:07:56.303Z,21.42
2019-05-29T15:10:31.276Z,21.72
2019-05-29T15:13:06.653Z,21.72
2019-05-29T15:15:39.777Z,22.03
2019-05-29T15:18:18.550Z,22.03
2019-05-29T15:20:49.949Z,21.93
2019-05-29T15:23:24.289Z,22.06
2019-05-29T15:26:00.997Z,21.97
2019-05-29T15:28:35.931Z,22.01
2019-05-29T15:31:10.532Z,21.98
2019-05-29T15:33:45.338Z,21.69
2019-05-29T15:36:19.723Z,21.39
2019-05-29T15:38:54.257Z,21.10
2019-05-29T15:41:29.164Z,20.94
2019-05-29T15:44:03.864Z,20.39
2019-05-29T15:46:38.685Z,20.39
2019-05-29T15:49:13.399Z,20.38
2019-05-29T15:51:48.287Z,20.24
2019-05-29T15:54:23.707Z,20.24
2019-05-29T15:56:58.285Z,20.32
2019-05-29T15:59:33.879Z,20.19
2019-05-29T16:04:52.792Z,19.74
2019-05-29T16:07:35.359Z,19.73
2019-05-29T16:10:13.073Z,19.73
2019-05-29T16:12:46.865Z,19.49
2019-05-29T16:15:20.493Z,19.49
2019-05-29T16:17:54.682Z,19.49
2019-05-29T16:20:29.290Z,19.29
2019-05-29T16:23:05.778Z,19.29
2019-05-29T16:26:07.123Z,19.25
2019-05-29T16:28:42.308Z,19.03
2019-05-29T16:31:17.156Z,18.97
2019-05-29T16:33:51.765Z,18.99
2019-05-29T16:36:26.451Z,18.92
2019-05-29T16:39:01.342Z,18.93
2019-05-29T16:41:37.711Z,18.92
2019-05-29T16:44:11.996Z,18.94
2019-05-29T16:46:46.952Z,18.86
2019-05-29T16:49:21.445Z,18.80
2019-05-29T16:51:57.173Z,18.75
2019-05-29T16:54:31.753Z,18.73
2019-05-29T16:57:05.098Z,18.63
2019-05-29T16:59:39.668Z,18.60
2019-05-29T17:02:15.510Z,18.60
2019-05-29T17:04:50.288Z,18.53
2019-05-29T17:07:25.858Z,18.52
2019-05-29T17:10:00.370Z,18.45
2019-05-29T17:12:35.291Z,18.36
2019-05-29T17:15:12.435Z,18.27
2019-05-29T17:17:47.300Z,18.27
2019-05-29T17:20:40.748Z,18.28
2019-05-29T17:23:18.719Z,18.26
2019-05-29T17:26:09.229Z,18.20
2019-05-29T17:28:29.353Z,18.07
2019-05-29T17:31:04.291Z,18.02
2019-05-29T17:33:39.283Z,18.08
2019-05-29T17:36:14.911Z,18.10
2019-05-29T17:38:49.973Z,18.27
2019-05-29T17:41:25.342Z,18.27
2019-05-29T17:43:59.951Z,18.30
2019-05-29T17:46:35.624Z,18.26
2019-05-29T17:49:10.371Z,18.26
2019-05-29T17:51:45.007Z,18.21
2019-05-29T17:54:19.852Z,18.21
2019-05-29T17:56:54.659Z,18.11
2019-05-29T17:59:31.307Z,17.95
2019-05-29T18:02:08.747Z,17.88
2019-05-29T18:04:43.300Z,17.87
2019-05-29T18:07:18.412Z,17.91
2019-05-29T18:09:53.292Z,17.84
2019-05-29T18:12:29.115Z,17.79
2019-05-29T18:15:05.704Z,17.83
2019-05-29T18:17:44.238Z,17.71
2019-05-29T18:20:19.759Z,17.62
2019-05-29T18:22:54.144Z,17.57
2019-05-29T18:25:28.715Z,17.51
2019-05-29T18:28:03.082Z,17.41
2019-05-29T18:30:37.770Z,17.32
2019-05-29T18:33:10.878Z,17.23
2019-05-29T18:35:45.278Z,17.12
2019-05-29T18:38:20.229Z,17.11
2019-05-29T18:40:54.898Z,17.01
2019-05-29T18:43:28.732Z,17.02
2019-05-29T18:46:03.121Z,17.00
2019-05-29T18:48:37.939Z,16.93
2019-05-29T18:51:12.335Z,16.87
2019-05-29T18:53:46.949Z,16.88
2019-05-29T18:56:21.871Z,16.90
2019-05-29T18:58:56.362Z,16.86
2019-05-29T19:01:31.744Z,16.79
2019-05-29T19:04:04.799Z,16.65
2019-05-29T19:06:39.138Z,16.65
2019-05-29T19:09:13.586Z,16.51
2019-05-29T19:11:47.938Z,16.51
2019-05-29T19:14:22.375Z,16.51
2019-05-29T19:16:57.950Z,16.46
2019-05-29T19:19:33.289Z,16.32
2019-05-29T19:22:07.876Z,16.32
2019-05-29T19:24:40.867Z,16.23
2019-05-29T19:27:30.052Z,16.20
2019-05-29T19:29:51.289Z,16.14
2019-05-29T19:32:27.153Z,16.08
2019-05-29T19:35:01.802Z,16.01
2019-05-29T19:37:37.938Z,15.92
2019-05-29T19:40:13.365Z,15.81
2019-05-29T19:42:47.960Z,15.81
2019-05-29T19:45:21.286Z,15.74
2019-05-29T19:47:55.553Z,15.64
2019-05-29T19:50:30.880Z,15.56
2019-05-29T19:53:04.049Z,15.56
2019-05-29T19:55:38.275Z,15.49
2019-05-29T19:58:12.784Z,15.47
2019-05-29T20:00:45.890Z,15.39
2019-05-29T20:03:21.329Z,15.34
2019-05-29T20:05:55.788Z,15.28
2019-05-29T20:08:32.588Z,15.24
2019-05-29T20:11:04.712Z,15.15
2019-05-29T20:13:38.954Z,15.06
2019-05-29T20:16:12.028Z,15.02
2019-05-29T20:18:44.871Z,14.99
2019-05-29T20:21:19.121Z,14.89
2019-05-29T20:23:54.662Z,14.71
2019-05-29T20:26:29.180Z,14.71
2019-05-29T20:29:04.767Z,14.56
2019-05-29T20:31:38.733Z,14.56
2019-05-29T20:34:13.948Z,14.46
2019-05-29T20:36:47.039Z,14.46
2019-05-29T20:39:20.289Z,14.40
2019-05-29T20:41:54.644Z,14.30
2019-05-29T20:44:30.520Z,14.30
2019-05-29T20:47:04.954Z,14.26
2019-05-29T20:49:40.140Z,14.20
2019-05-29T20:52:15.116Z,14.16
2019-05-29T20:54:49.710Z,14.14
2019-05-29T20:57:23.705Z,14.14
2019-05-29T20:59:57.957Z,14.09
2019-05-29T21:02:32.305Z,13.98
2019-05-29T21:05:07.364Z,13.96
2019-05-29T21:07:42.976Z,13.90
2019-05-29T21:10:18.789Z,13.78
2019-05-29T21:12:52.003Z,13.78
2019-05-29T21:15:24.874Z,13.70
2019-05-29T21:17:59.286Z,13.67
2019-05-29T21:20:34.179Z,13.64
2019-05-29T21:23:08.717Z,13.54
2019-05-29T21:25:43.094Z,13.48
2019-05-29T21:28:17.681Z,13.40
2019-05-29T21:30:51.947Z,13.40
2019-05-29T21:33:26.348Z,13.35
2019-05-29T21:36:00.897Z,13.35
2019-05-29T21:38:36.106Z,13.28
2019-05-29T21:41:10.660Z,13.31
2019-05-29T21:43:44.950Z,13.23
2019-05-29T21:46:19.287Z,13.23
2019-05-29T21:48:53.768Z,13.11
2019-05-29T21:51:28.294Z,12.99
2019-05-29T21:54:02.717Z,12.91
2019-05-29T21:59:20.337Z,12.88
2019-05-29T22:01:54.958Z,12.78
2019-05-29T22:04:28.951Z,12.73
2019-05-29T22:07:03.685Z,12.73
2019-05-29T22:09:38.104Z,12.64
2019-05-29T22:12:12.644Z,12.59
2019-05-29T22:14:47.269Z,12.59
2019-05-29T22:17:22.280Z,12.56
2019-05-29T22:21:55.716Z,12.58
2019-05-29T22:24:30.137Z,12.44
2019-05-29T22:27:04.981Z,12.37
2019-05-29T22:29:39.715Z,12.31
2019-05-29T22:32:14.286Z,12.28
2019-05-29T22:34:48.693Z,12.23
2019-05-29T22:37:23.425Z,12.20
2019-05-29T22:39:59.580Z,12.19
2019-05-29T22:42:33.931Z,12.13
2019-05-29T22:45:08.338Z,12.06
2019-05-29T22:47:43.397Z,12.06
2019-05-29T22:50:23.499Z,12.03
2019-05-29T22:52:58.315Z,12.00
2019-05-29T22:55:32.710Z,11.96
2019-05-29T22:58:07.122Z,11.96
2019-05-29T23:00:41.694Z,11.94
2019-05-29T23:03:16.089Z,11.85
2019-05-29T23:05:50.415Z,11.84
2019-05-29T23:08:24.891Z,11.84
2019-05-29T23:10:58.335Z,11.81
2019-05-29T23:13:32.302Z,11.69
2019-05-29T23:16:06.788Z,11.69
2019-05-29T23:18:41.008Z,11.63
2019-05-29T23:21:15.261Z,11.64
2019-05-29T23:23:49.743Z,11.56
2019-05-29T23:26:24.111Z,11.49
2019-05-29T23:31:44.772Z,11.50
2019-05-29T23:34:19.247Z,11.32
2019-05-29T23:36:55.048Z,11.41
2019-05-29T23:39:29.654Z,11.34
2019-05-29T23:42:04.279Z,11.31
2019-05-29T23:44:38.689Z,11.27
2019-05-29T23:47:12.951Z,11.27
2019-05-29T23:49:47.335Z,11.24
2019-05-29T23:52:21.786Z,11.25
2019-05-29T23:54:55.677Z,11.20
2019-05-29T23:57:29.948Z,11.16
